createdAt,value
2023-11-24T00:00:44.844Z,20.07
2023-11-24T00:03:13.147Z,20.07
2023-11-24T00:05:41.405Z,20.05
2023-11-24T00:08:09.590Z,20.05
2023-11-24T00:10:38.439Z,20.05
2023-11-24T00:13:07.705Z,20.09
2023-11-24T00:15:38.405Z,20.07
2023-11-24T00:18:06.675Z,20.05
2023-11-24T00:20:35.332Z,20.03
2023-11-24T00:23:03.737Z,20.04
2023-11-24T00:25:34.033Z,20.02
2023-11-24T00:28:02.966Z,20.00
2023-11-24T00:30:31.027Z,19.99
2023-11-24T00:32:59.151Z,19.96
2023-11-24T00:35:27.373Z,19.87
2023-11-24T00:37:55.381Z,19.89
2023-11-24T00:40:23.303Z,19.82
2023-11-24T00:42:51.685Z,19.80
2023-11-24T00:45:19.858Z,19.83
2023-11-24T00:47:48.274Z,19.82
2023-11-24T00:50:16.559Z,19.82
2023-11-24T00:52:44.776Z,19.80
2023-11-24T00:55:13.194Z,19.79
2023-11-24T00:57:42.091Z,19.71
2023-11-24T01:00:11.832Z,19.59
2023-11-24T01:02:40.319Z,19.70
2023-11-24T01:05:10.744Z,19.71
2023-11-24T01:07:38.783Z,19.67
2023-11-24T01:10:09.156Z,19.70
2023-11-24T01:12:37.602Z,19.59
2023-11-24T01:15:07.552Z,19.66
2023-11-24T01:17:36.900Z,19.65
2023-11-24T01:20:05.343Z,19.63
2023-11-24T01:22:33.410Z,19.64
2023-11-24T01:25:01.521Z,19.64
2023-11-24T01:27:29.644Z,19.67
2023-11-24T01:29:57.841Z,19.66
2023-11-24T01:32:25.765Z,19.61
2023-11-24T01:34:54.381Z,19.59
2023-11-24T01:37:23.634Z,19.43
2023-11-24T01:39:51.966Z,19.54
2023-11-24T01:42:20.596Z,19.60
2023-11-24T01:44:49.174Z,19.56
2023-11-24T01:47:17.850Z,19.53
2023-11-24T01:49:47.320Z,19.62
2023-11-24T01:52:16.157Z,19.59
2023-11-24T01:54:44.209Z,19.57
2023-11-24T01:57:13.383Z,19.50
2023-11-24T01:59:42.521Z,19.51
2023-11-24T02:02:11.221Z,19.40
2023-11-24T02:04:39.497Z,19.53
2023-11-24T02:07:09.203Z,19.58
2023-11-24T02:09:37.385Z,19.59
2023-11-24T02:12:05.583Z,19.61
2023-11-24T02:14:34.257Z,19.56
2023-11-24T02:17:02.430Z,19.60
2023-11-24T02:19:30.720Z,19.54
2023-11-24T02:21:58.967Z,19.50
2023-11-24T02:24:26.856Z,19.50
2023-11-24T02:26:55.159Z,19.48
2023-11-24T02:29:23.033Z,19.45
2023-11-24T02:31:50.935Z,19.42
2023-11-24T02:34:19.904Z,19.44
2023-11-24T02:36:48.316Z,19.43
2023-11-24T02:39:16.381Z,19.42
2023-11-24T02:41:44.321Z,19.36
2023-11-24T02:44:12.451Z,19.35
2023-11-24T02:46:42.237Z,19.37
2023-11-24T02:49:10.471Z,19.36
2023-11-24T02:51:39.304Z,19.35
2023-11-24T02:54:08.140Z,19.37
2023-11-24T02:56:36.750Z,19.36
2023-11-24T02:59:04.585Z,19.41
2023-11-24T03:01:33.135Z,19.44
2023-11-24T03:04:01.347Z,19.40
2023-11-24T03:06:29.595Z,19.43
2023-11-24T03:08:58.963Z,19.41
2023-11-24T03:11:26.806Z,19.41
2023-11-24T03:13:55.196Z,19.39
2023-11-24T03:16:23.430Z,19.41
2023-11-24T03:18:51.486Z,19.38
2023-11-24T03:21:19.440Z,19.31
2023-11-24T03:23:47.853Z,19.33
2023-11-24T03:26:16.022Z,19.32
2023-11-24T03:28:44.164Z,18.95
2023-11-24T03:31:12.642Z,19.28
2023-11-24T03:33:40.694Z,19.31
2023-11-24T03:36:08.983Z,19.31
2023-11-24T03:38:37.128Z,19.29
2023-11-24T03:41:05.104Z,19.31
2023-11-24T03:43:33.466Z,19.28
2023-11-24T03:46:01.878Z,19.26
2023-11-24T03:48:31.612Z,19.27
2023-11-24T03:51:00.238Z,19.28
2023-11-24T03:53:28.319Z,19.30
2023-11-24T03:55:56.236Z,19.32
2023-11-24T03:58:24.359Z,19.31
2023-11-24T04:00:52.221Z,19.28
2023-11-24T04:03:20.513Z,19.29
2023-11-24T04:05:48.452Z,19.31
2023-11-24T04:08:16.505Z,19.29
2023-11-24T04:10:44.814Z,19.32
2023-11-24T04:13:13.323Z,18.92
2023-11-24T04:15:41.219Z,19.27
2023-11-24T04:18:09.265Z,19.26
2023-11-24T04:20:37.454Z,19.18
2023-11-24T04:23:08.371Z,19.20
2023-11-24T04:25:37.003Z,19.17
2023-11-24T04:28:05.934Z,19.15
2023-11-24T04:30:34.492Z,19.14
2023-11-24T04:35:31.918Z,19.14
2023-11-24T04:38:00.089Z,19.13
2023-11-24T04:40:28.032Z,19.14
2023-11-24T04:42:56.438Z,19.15
2023-11-24T04:45:24.493Z,19.13
2023-11-24T04:47:52.908Z,19.14
2023-11-24T04:50:21.139Z,19.15
2023-11-24T04:52:49.266Z,19.16
2023-11-24T04:55:17.294Z,19.17
2023-11-24T04:57:51.706Z,19.08
2023-11-24T05:00:20.257Z,19.20
2023-11-24T05:02:48.328Z,19.22
2023-11-24T05:05:18.731Z,19.26
2023-11-24T05:07:47.102Z,19.28
2023-11-24T05:10:15.033Z,19.31
2023-11-24T05:12:43.056Z,19.21
2023-11-24T05:15:11.734Z,19.30
2023-11-24T05:17:40.532Z,19.26
2023-11-24T05:20:09.797Z,19.24
2023-11-24T05:22:37.987Z,19.21
2023-11-24T05:25:07.171Z,19.18
2023-11-24T05:27:35.520Z,19.19
2023-11-24T05:30:08.800Z,19.16
2023-11-24T05:32:37.339Z,19.15
2023-11-24T05:35:05.824Z,19.16
2023-11-24T05:37:34.326Z,19.13
2023-11-24T05:40:06.062Z,19.09
2023-11-24T05:42:34.145Z,19.10
2023-11-24T05:45:03.546Z,19.11
2023-11-24T05:47:31.861Z,19.06
2023-11-24T05:50:00.000Z,19.14
2023-11-24T05:52:28.633Z,19.14
2023-11-24T05:54:59.616Z,19.18
2023-11-24T05:57:28.467Z,19.19
2023-11-24T05:59:57.387Z,19.19
2023-11-24T06:02:26.221Z,19.18
2023-11-24T06:04:54.503Z,19.16
2023-11-24T06:07:24.270Z,19.15
2023-11-24T06:09:52.324Z,19.11
2023-11-24T06:12:20.834Z,19.18
2023-11-24T06:14:49.841Z,19.16
2023-11-24T06:17:17.817Z,19.21
2023-11-24T06:19:45.845Z,19.25
2023-11-24T06:22:13.888Z,19.22
2023-11-24T06:24:43.343Z,19.24
2023-11-24T06:27:11.717Z,19.26
2023-11-24T06:29:39.799Z,19.28
2023-11-24T06:32:09.030Z,19.32
2023-11-24T06:34:36.911Z,19.34
2023-11-24T06:37:05.148Z,19.36
2023-11-24T06:39:33.152Z,19.40
2023-11-24T06:42:02.013Z,19.51
2023-11-24T06:44:30.044Z,19.50
2023-11-24T06:46:59.048Z,19.52
2023-11-24T06:49:30.952Z,19.58
2023-11-24T06:52:00.101Z,19.62
2023-11-24T06:54:27.896Z,19.64
2023-11-24T06:56:56.295Z,19.68
2023-11-24T06:59:24.138Z,19.73
2023-11-24T07:01:52.292Z,19.76
2023-11-24T07:04:20.581Z,19.78
2023-11-24T07:06:48.674Z,19.79
2023-11-24T07:09:16.978Z,19.79
2023-11-24T07:11:45.132Z,19.77
2023-11-24T07:14:12.986Z,19.78
2023-11-24T07:16:40.969Z,19.75
2023-11-24T07:19:09.316Z,19.78
2023-11-24T07:21:37.868Z,19.80
2023-11-24T07:24:06.415Z,19.83
2023-11-24T07:26:34.393Z,19.85
2023-11-24T07:29:03.819Z,19.42
2023-11-24T07:31:32.019Z,19.86
2023-11-24T07:33:59.994Z,19.87
2023-11-24T07:36:27.967Z,19.88
2023-11-24T07:38:56.014Z,19.86
2023-11-24T07:41:23.829Z,19.83
2023-11-24T07:43:51.771Z,19.86
2023-11-24T07:46:19.655Z,19.91
2023-11-24T07:48:48.306Z,19.95
2023-11-24T07:51:16.342Z,19.94
2023-11-24T07:53:44.288Z,19.96
2023-11-24T07:56:12.203Z,19.98
2023-11-24T07:58:40.552Z,20.02
2023-11-24T08:01:09.179Z,20.05
2023-11-24T08:03:37.753Z,20.08
2023-11-24T08:06:09.734Z,19.74
2023-11-24T08:08:37.674Z,20.11
2023-11-24T08:11:06.299Z,20.10
2023-11-24T08:13:34.439Z,20.10
2023-11-24T08:16:03.524Z,20.11
2023-11-24T08:18:31.836Z,20.11
2023-11-24T08:21:03.245Z,20.11
2023-11-24T08:23:31.892Z,20.07
2023-11-24T08:25:59.772Z,20.01
2023-11-24T08:28:27.777Z,19.97
2023-11-24T08:30:56.845Z,19.90
2023-11-24T08:33:25.036Z,19.74
2023-11-24T08:35:52.955Z,19.82
2023-11-24T08:38:21.058Z,19.79
2023-11-24T08:40:50.270Z,19.69
2023-11-24T08:43:19.542Z,19.79
2023-11-24T08:45:47.584Z,19.76
2023-11-24T08:48:15.753Z,19.75
2023-11-24T08:50:43.616Z,19.82
2023-11-24T08:53:11.767Z,19.83
2023-11-24T08:55:39.664Z,19.82
2023-11-24T08:58:07.698Z,19.79
2023-11-24T09:00:36.590Z,19.79
2023-11-24T09:03:06.653Z,19.76
2023-11-24T09:05:34.700Z,19.73
2023-11-24T09:08:02.796Z,19.78
2023-11-24T09:10:30.722Z,19.83
2023-11-24T09:12:59.369Z,19.83
2023-11-24T09:15:27.403Z,19.81
2023-11-24T09:17:55.966Z,19.82
2023-11-24T09:20:23.970Z,19.84
2023-11-24T09:22:52.209Z,19.87
2023-11-24T09:25:21.123Z,19.87
2023-11-24T09:27:49.621Z,19.88
2023-11-24T09:30:17.905Z,19.89
2023-11-24T09:32:47.224Z,19.90
2023-11-24T09:35:15.844Z,19.89
2023-11-24T09:37:44.350Z,19.89
2023-11-24T09:40:18.129Z,19.84
2023-11-24T09:42:47.538Z,19.86
2023-11-24T09:45:18.407Z,19.92
2023-11-24T09:47:51.724Z,19.83
2023-11-24T09:50:25.824Z,19.94
2023-11-24T09:53:02.110Z,19.94
2023-11-24T09:55:30.753Z,19.93
2023-11-24T09:57:59.784Z,19.96
2023-11-24T10:00:29.151Z,19.88
2023-11-24T10:03:00.398Z,19.96
2023-11-24T10:05:28.502Z,19.98
2023-11-24T10:07:58.265Z,19.98
2023-11-24T10:10:27.943Z,19.99
2023-11-24T10:13:03.569Z,19.86
2023-11-24T10:15:32.844Z,19.97
2023-11-24T10:18:01.202Z,19.84
2023-11-24T10:20:34.014Z,19.93
2023-11-24T10:23:02.421Z,19.97
2023-11-24T10:25:35.538Z,19.98
2023-11-24T10:28:09.297Z,20.02
2023-11-24T10:30:38.113Z,20.02
2023-11-24T10:33:06.679Z,20.03
2023-11-24T10:35:34.676Z,20.01
2023-11-24T10:38:03.888Z,19.87
2023-11-24T10:40:33.297Z,19.98
2023-11-24T10:43:03.561Z,20.01
2023-11-24T10:45:33.691Z,19.98
2023-11-24T10:48:28.208Z,20.00
2023-11-24T10:51:29.181Z,20.05
2023-11-24T10:54:01.439Z,20.03
2023-11-24T10:56:31.412Z,20.04
2023-11-24T10:59:01.022Z,20.00
2023-11-24T11:01:29.561Z,20.09
2023-11-24T11:03:59.163Z,20.11
2023-11-24T11:06:40.508Z,20.08
2023-11-24T11:09:20.229Z,20.13
2023-11-24T11:12:14.933Z,20.14
2023-11-24T11:14:43.791Z,20.13
2023-11-24T11:17:21.915Z,20.18
2023-11-24T11:20:01.378Z,20.27
2023-11-24T11:22:38.043Z,20.38
2023-11-24T11:25:24.691Z,20.45
2023-11-24T11:27:56.183Z,20.49
2023-11-24T11:30:27.944Z,20.52
2023-11-24T11:33:16.560Z,20.55
2023-11-24T11:35:48.106Z,20.57
2023-11-24T11:38:34.965Z,20.57
2023-11-24T11:41:05.620Z,20.63
2023-11-24T11:43:52.630Z,20.66
2023-11-24T11:49:10.929Z,20.71
2023-11-24T11:51:39.477Z,20.72
2023-11-24T11:54:08.344Z,20.76
2023-11-24T11:56:36.404Z,20.80
2023-11-24T11:59:07.046Z,20.83
2023-11-24T12:01:37.181Z,20.85
2023-11-24T12:04:05.605Z,20.88
2023-11-24T12:06:34.044Z,20.86
2023-11-24T12:09:02.049Z,20.90
2023-11-24T12:11:30.500Z,20.93
2023-11-24T12:13:58.733Z,20.97
2023-11-24T12:16:29.765Z,20.99
2023-11-24T12:18:58.328Z,21.02
2023-11-24T12:21:26.305Z,21.02
2023-11-24T12:24:05.045Z,21.05
2023-11-24T12:26:40.923Z,21.04
2023-11-24T12:29:14.961Z,21.03
2023-11-24T12:31:43.826Z,21.03
2023-11-24T12:34:25.891Z,21.00
2023-11-24T12:36:57.254Z,21.02
2023-11-24T12:39:35.677Z,21.01
2023-11-24T12:42:06.015Z,20.90
2023-11-24T12:44:35.688Z,21.02
2023-11-24T12:47:10.308Z,21.04
2023-11-24T12:50:01.610Z,21.06
2023-11-24T12:52:32.762Z,21.10
2023-11-24T12:55:03.180Z,21.12
2023-11-24T12:57:32.316Z,21.24
2023-11-24T13:00:11.165Z,21.26
2023-11-24T13:02:40.878Z,21.28
2023-11-24T13:05:11.148Z,21.29
2023-11-24T13:07:44.189Z,21.31
2023-11-24T13:10:13.004Z,21.30
2023-11-24T13:12:43.197Z,21.35
2023-11-24T13:15:11.846Z,21.21
2023-11-24T13:17:40.328Z,21.45
2023-11-24T13:20:15.042Z,21.46
2023-11-24T13:22:44.984Z,21.49
2023-11-24T13:25:13.430Z,21.49
2023-11-24T13:27:43.028Z,21.49
2023-11-24T13:30:13.322Z,21.48
2023-11-24T13:32:42.735Z,21.50
2023-11-24T13:35:17.133Z,21.52
2023-11-24T13:37:48.517Z,21.57
2023-11-24T13:40:21.499Z,21.45
2023-11-24T13:42:50.648Z,21.56
2023-11-24T13:45:18.766Z,21.61
2023-11-24T13:47:46.768Z,21.65
2023-11-24T13:50:16.008Z,21.67
2023-11-24T13:52:45.260Z,21.60
2023-11-24T13:55:13.616Z,21.71
2023-11-24T13:57:41.793Z,21.69
2023-11-24T14:00:12.802Z,21.71
2023-11-24T14:02:42.182Z,21.67
2023-11-24T14:05:10.837Z,21.75
2023-11-24T14:07:39.350Z,21.75
2023-11-24T14:10:07.858Z,21.74
2023-11-24T14:12:36.566Z,21.77
2023-11-24T14:15:05.884Z,21.79
2023-11-24T14:17:37.061Z,21.79
2023-11-24T14:20:08.249Z,21.79
2023-11-24T14:22:37.610Z,21.78
2023-11-24T14:25:07.963Z,21.78
2023-11-24T14:27:36.897Z,21.79
2023-11-24T14:30:06.895Z,21.75
2023-11-24T14:32:35.693Z,21.77
2023-11-24T14:35:07.049Z,21.75
2023-11-24T14:37:35.377Z,21.75
2023-11-24T14:42:36.728Z,21.69
2023-11-24T14:45:06.034Z,21.72
2023-11-24T14:47:33.982Z,21.73
2023-11-24T14:50:06.713Z,21.71
2023-11-24T14:52:35.015Z,21.70
2023-11-24T14:55:06.173Z,21.67
2023-11-24T14:57:34.698Z,21.67
2023-11-24T15:00:03.634Z,21.66
2023-11-24T15:02:32.117Z,21.65
2023-11-24T15:05:00.250Z,21.65
2023-11-24T15:07:31.057Z,21.64
2023-11-24T15:10:00.523Z,21.57
2023-11-24T15:12:28.717Z,21.59
2023-11-24T15:15:00.345Z,21.58
2023-11-24T15:17:28.756Z,21.61
2023-11-24T15:19:57.038Z,21.60
2023-11-24T15:22:28.551Z,21.57
2023-11-24T15:24:59.708Z,21.57
2023-11-24T15:27:28.538Z,21.54
2023-11-24T15:29:56.757Z,21.54
2023-11-24T15:32:25.311Z,21.50
2023-11-24T15:34:54.709Z,21.48
2023-11-24T15:37:24.228Z,21.47
2023-11-24T15:39:58.395Z,21.44
2023-11-24T15:42:30.437Z,21.46
2023-11-24T15:45:00.406Z,21.40
2023-11-24T15:47:29.726Z,21.41
2023-11-24T15:49:59.678Z,21.37
2023-11-24T15:52:28.673Z,21.33
2023-11-24T15:54:58.908Z,21.37
2023-11-24T15:57:27.866Z,21.35
2023-11-24T16:00:00.792Z,21.33
2023-11-24T16:02:33.194Z,21.34
2023-11-24T16:05:05.833Z,21.31
2023-11-24T16:07:35.951Z,21.33
2023-11-24T16:10:16.931Z,21.32
2023-11-24T16:12:46.021Z,21.30
2023-11-24T16:15:20.259Z,21.32
2023-11-24T16:17:51.535Z,21.32
2023-11-24T16:20:19.718Z,21.33
2023-11-24T16:22:47.648Z,21.37
2023-11-24T16:25:15.794Z,21.36
2023-11-24T16:27:44.022Z,21.37
2023-11-24T16:30:12.201Z,21.35
2023-11-24T16:32:40.743Z,21.36
2023-11-24T16:35:13.422Z,21.37
2023-11-24T16:37:42.033Z,21.37
2023-11-24T16:40:10.318Z,21.36
2023-11-24T16:42:38.589Z,21.36
2023-11-24T16:45:10.151Z,21.35
2023-11-24T16:47:38.695Z,21.34
2023-11-24T16:50:09.269Z,21.34
2023-11-24T16:52:46.543Z,21.37
2023-11-24T16:55:16.014Z,21.38
2023-11-24T16:57:43.932Z,21.37
2023-11-24T17:00:14.934Z,21.39
2023-11-24T17:02:43.160Z,21.41
2023-11-24T17:05:12.055Z,21.44
2023-11-24T17:07:42.813Z,21.44
2023-11-24T17:10:11.421Z,21.47
2023-11-24T17:12:40.749Z,21.46
2023-11-24T17:15:12.663Z,21.51
2023-11-24T17:17:41.308Z,21.52
2023-11-24T17:20:09.929Z,21.60
2023-11-24T17:22:40.910Z,21.63
2023-11-24T17:25:09.091Z,21.64
2023-11-24T17:27:37.768Z,21.62
2023-11-24T17:30:08.198Z,21.61
2023-11-24T17:32:37.190Z,21.62
2023-11-24T17:35:07.945Z,21.60
2023-11-24T17:37:36.661Z,21.55
2023-11-24T17:40:09.614Z,21.61
2023-11-24T17:42:37.890Z,21.61
2023-11-24T17:45:16.355Z,21.62
2023-11-24T17:47:46.885Z,21.60
2023-11-24T17:50:15.307Z,21.61
2023-11-24T17:52:44.102Z,21.60
2023-11-24T17:55:12.313Z,21.56
2023-11-24T17:57:40.463Z,21.56
2023-11-24T18:00:14.427Z,21.52
2023-11-24T18:02:42.510Z,21.55
2023-11-24T18:05:11.637Z,21.53
2023-11-24T18:07:40.403Z,21.56
2023-11-24T18:10:08.906Z,21.54
2023-11-24T18:12:37.150Z,21.56
2023-11-24T18:15:08.209Z,21.57
2023-11-24T18:17:36.535Z,21.58
2023-11-24T18:20:06.563Z,21.47
2023-11-24T18:22:34.694Z,21.61
2023-11-24T18:25:10.397Z,21.57
2023-11-24T18:27:39.322Z,21.57
2023-11-24T18:30:08.295Z,21.57
2023-11-24T18:32:36.292Z,21.58
2023-11-24T18:35:04.653Z,21.60
2023-11-24T18:37:32.938Z,21.63
2023-11-24T18:40:03.839Z,21.65
2023-11-24T18:42:34.040Z,21.66
2023-11-24T18:45:02.763Z,21.65
2023-11-24T18:47:31.929Z,21.69
2023-11-24T18:50:00.041Z,21.69
2023-11-24T18:52:28.148Z,21.69
2023-11-24T18:54:56.469Z,21.67
2023-11-24T18:57:25.704Z,21.65
2023-11-24T18:59:54.936Z,21.64
2023-11-24T19:02:27.931Z,21.65
2023-11-24T19:04:56.544Z,21.60
2023-11-24T19:07:24.779Z,21.61
2023-11-24T19:09:54.398Z,21.60
2023-11-24T19:12:22.399Z,21.57
2023-11-24T19:14:50.598Z,21.56
2023-11-24T19:17:19.612Z,21.54
2023-11-24T19:19:50.507Z,21.50
2023-11-24T19:22:19.461Z,21.48
2023-11-24T19:24:48.183Z,21.44
2023-11-24T19:27:16.813Z,21.45
2023-11-24T19:29:45.196Z,21.44
2023-11-24T19:32:13.238Z,21.42
2023-11-24T19:34:43.827Z,21.41
2023-11-24T19:37:14.439Z,21.41
2023-11-24T19:39:43.908Z,21.42
2023-11-24T19:42:12.447Z,21.48
2023-11-24T19:44:41.136Z,21.48
2023-11-24T19:47:13.037Z,21.53
2023-11-24T19:49:40.885Z,21.53
2023-11-24T19:52:10.937Z,21.55
2023-11-24T19:54:39.418Z,21.54
2023-11-24T19:57:07.596Z,21.50
2023-11-24T19:59:35.683Z,21.52
2023-11-24T20:02:06.071Z,21.50
2023-11-24T20:04:35.284Z,21.52
2023-11-24T20:07:03.812Z,21.50
2023-11-24T20:09:34.341Z,21.54
2023-11-24T20:12:02.538Z,21.48
2023-11-24T20:14:32.753Z,21.45
2023-11-24T20:17:01.049Z,21.40
2023-11-24T20:19:30.064Z,21.35
2023-11-24T20:21:58.398Z,21.49
2023-11-24T20:24:27.517Z,21.49
2023-11-24T20:26:56.207Z,21.55
2023-11-24T20:29:24.142Z,21.55
2023-11-24T20:31:52.042Z,21.51
2023-11-24T20:34:20.125Z,21.45
2023-11-24T20:36:48.785Z,21.54
2023-11-24T20:39:22.640Z,21.48
2023-11-24T20:41:51.915Z,21.50
2023-11-24T20:44:20.292Z,21.52
2023-11-24T20:46:52.004Z,21.54
2023-11-24T20:49:20.171Z,21.52
2023-11-24T20:51:48.369Z,21.50
2023-11-24T20:54:16.958Z,21.45
2023-11-24T20:56:45.724Z,21.45
2023-11-24T20:59:14.907Z,21.47
2023-11-24T21:01:43.245Z,21.47
2023-11-24T21:04:13.645Z,21.52
2023-11-24T21:06:41.958Z,21.54
2023-11-24T21:09:11.820Z,21.52
2023-11-24T21:11:40.395Z,21.55
2023-11-24T21:14:09.126Z,21.60
2023-11-24T21:16:37.390Z,21.59
2023-11-24T21:19:05.723Z,21.61
2023-11-24T21:21:34.051Z,21.60
2023-11-24T21:24:02.752Z,21.59
2023-11-24T21:26:30.636Z,21.62
2023-11-24T21:28:58.677Z,21.61
2023-11-24T21:31:27.058Z,21.62
2023-11-24T21:33:55.875Z,21.59
2023-11-24T21:36:24.311Z,21.60
2023-11-24T21:38:52.608Z,21.60
2023-11-24T21:41:23.654Z,21.61
2023-11-24T21:43:52.133Z,21.55
2023-11-24T21:46:21.392Z,21.60
2023-11-24T21:48:50.970Z,21.57
2023-11-24T21:51:19.377Z,21.54
2023-11-24T21:53:47.631Z,21.49
2023-11-24T21:56:24.967Z,21.41
2023-11-24T21:58:53.961Z,21.44
2023-11-24T22:01:22.601Z,21.41
2023-11-24T22:03:53.589Z,21.39
2023-11-24T22:06:26.051Z,21.41
2023-11-24T22:08:54.327Z,21.46
2023-11-24T22:11:22.318Z,21.44
2023-11-24T22:13:50.417Z,21.40
2023-11-24T22:16:19.588Z,21.39
2023-11-24T22:18:51.109Z,21.40
2023-11-24T22:21:20.210Z,21.39
2023-11-24T22:23:48.644Z,21.39
2023-11-24T22:26:23.222Z,21.37
2023-11-24T22:28:53.677Z,21.34
2023-11-24T22:31:21.829Z,21.35
2023-11-24T22:33:50.814Z,21.34
2023-11-24T22:36:22.988Z,21.33
2023-11-24T22:38:51.414Z,21.23
2023-11-24T22:41:21.121Z,20.94
2023-11-24T22:43:56.920Z,21.28
2023-11-24T22:46:26.322Z,21.28
2023-11-24T22:48:55.245Z,21.24
2023-11-24T22:51:27.863Z,21.24
2023-11-24T22:53:56.182Z,21.23
2023-11-24T22:56:26.953Z,21.12
2023-11-24T22:58:56.938Z,21.23
2023-11-24T23:01:26.794Z,21.24
2023-11-24T23:04:01.113Z,21.12
2023-11-24T23:06:29.812Z,21.21
2023-11-24T23:08:58.204Z,21.19
2023-11-24T23:11:27.357Z,21.18
2023-11-24T23:13:55.811Z,21.15
2023-11-24T23:16:26.999Z,21.14
2023-11-24T23:18:55.298Z,21.14
2023-11-24T23:21:24.248Z,21.13
2023-11-24T23:23:52.663Z,21.12
2023-11-24T23:26:20.898Z,21.12
2023-11-24T23:28:49.615Z,21.07
2023-11-24T23:31:18.563Z,21.09
2023-11-24T23:33:47.716Z,21.06
2023-11-24T23:36:16.858Z,21.07
2023-11-24T23:38:47.094Z,21.05
2023-11-24T23:41:15.398Z,21.07
2023-11-24T23:43:44.346Z,21.05
2023-11-24T23:46:12.669Z,21.04
2023-11-24T23:48:40.797Z,21.03
2023-11-24T23:51:08.929Z,21.01
2023-11-24T23:53:37.014Z,20.97
2023-11-24T23:56:07.086Z,20.95
2023-11-24T23:58:38.479Z,20.97
